sensor_id;sensor_type;location;lat;lon;timestamp;temperature;humidity
46590;DHT22;32313;48.722;9.362;2024-02-23T00:01:44;5.00;99.90
46590;DHT22;32313;48.722;9.362;2024-02-23T00:04:10;5.00;99.90
46590;DHT22;32313;48.722;9.362;2024-02-23T00:06:36;5.00;99.90
46590;DHT22;32313;48.722;9.362;2024-02-23T00:09:02;5.00;99.90
46590;DHT22;32313;48.722;9.362;2024-02-23T00:11:27;4.90;99.90
46590;DHT22;32313;48.722;9.362;2024-02-23T00:13:54;4.90;99.90
46590;DHT22;32313;48.722;9.362;2024-02-23T00:16:19;4.90;99.90
46590;DHT22;32313;48.722;9.362;2024-02-23T00:18:45;4.90;99.90
46590;DHT22;32313;48.722;9.362;2024-02-23T00:21:11;4.90;99.90
46590;DHT22;32313;48.722;9.362;2024-02-23T00:23:36;4.90;99.90
46590;DHT22;32313;48.722;9.362;2024-02-23T00:26:02;4.90;99.90
46590;DHT22;32313;48.722;9.362;2024-02-23T00:28:29;4.90;99.90
46590;DHT22;32313;48.722;9.362;2024-02-23T00:30:55;4.90;99.90
46590;DHT22;32313;48.722;9.362;2024-02-23T00:33:20;4.90;99.90
46590;DHT22;32313;48.722;9.362;2024-02-23T00:35:46;4.80;99.90
46590;DHT22;32313;48.722;9.362;2024-02-23T00:38:12;4.80;99.90
46590;DHT22;32313;48.722;9.362;2024-02-23T00:40:37;4.90;99.90
46590;DHT22;32313;48.722;9.362;2024-02-23T00:43:04;4.90;99.90
46590;DHT22;32313;48.722;9.362;2024-02-23T00:45:30;4.90;99.90
46590;DHT22;32313;48.722;9.362;2024-02-23T00:47:55;5.00;99.90
46590;DHT22;32313;48.722;9.362;2024-02-23T00:50:23;5.00;99.90
46590;DHT22;32313;48.722;9.362;2024-02-23T00:52:51;5.00;99.90
46590;DHT22;32313;48.722;9.362;2024-02-23T00:55:18;5.00;99.90
46590;DHT22;32313;48.722;9.362;2024-02-23T00:57:43;5.00;99.90
46590;DHT22;32313;48.722;9.362;2024-02-23T01:00:10;5.00;99.90
46590;DHT22;32313;48.722;9.362;2024-02-23T01:02:35;5.00;99.90
46590;DHT22;32313;48.722;9.362;2024-02-23T01:05:01;5.00;99.90
46590;DHT22;32313;48.722;9.362;2024-02-23T01:07:27;5.00;99.90
46590;DHT22;32313;48.722;9.362;2024-02-23T01:09:53;5.00;99.90
46590;DHT22;32313;48.722;9.362;2024-02-23T01:12:19;5.00;99.90
46590;DHT22;32313;48.722;9.362;2024-02-23T01:14:45;5.00;99.90
46590;DHT22;32313;48.722;9.362;2024-02-23T01:17:14;5.00;99.90
46590;DHT22;32313;48.722;9.362;2024-02-23T01:19:41;5.00;99.90
46590;DHT22;32313;48.722;9.362;2024-02-23T01:22:08;5.00;99.90
46590;DHT22;32313;48.722;9.362;2024-02-23T01:24:33;5.00;99.90
46590;DHT22;32313;48.722;9.362;2024-02-23T01:26:59;4.90;99.90
46590;DHT22;32313;48.722;9.362;2024-02-23T01:29:26;4.90;99.90
46590;DHT22;32313;48.722;9.362;2024-02-23T01:31:52;4.90;99.90
46590;DHT22;32313;48.722;9.362;2024-02-23T01:34:20;4.80;99.90
46590;DHT22;32313;48.722;9.362;2024-02-23T01:36:49;4.80;99.90
46590;DHT22;32313;48.722;9.362;2024-02-23T01:39:15;4.80;99.90
46590;DHT22;32313;48.722;9.362;2024-02-23T01:41:41;4.80;99.90
46590;DHT22;32313;48.722;9.362;2024-02-23T01:44:08;4.70;99.90
46590;DHT22;32313;48.722;9.362;2024-02-23T01:46:33;4.60;99.90
46590;DHT22;32313;48.722;9.362;2024-02-23T01:48:59;4.50;99.90
46590;DHT22;32313;48.722;9.362;2024-02-23T01:51:25;4.50;99.90
46590;DHT22;32313;48.722;9.362;2024-02-23T01:53:51;4.50;99.90
46590;DHT22;32313;48.722;9.362;2024-02-23T01:56:17;4.40;99.90
46590;DHT22;32313;48.722;9.362;2024-02-23T01:58:44;4.50;99.90
46590;DHT22;32313;48.722;9.362;2024-02-23T02:01:10;4.40;99.90
46590;DHT22;32313;48.722;9.362;2024-02-23T02:03:38;4.40;99.90
46590;DHT22;32313;48.722;9.362;2024-02-23T02:06:08;4.30;99.90
46590;DHT22;32313;48.722;9.362;2024-02-23T02:08:35;4.30;99.90
46590;DHT22;32313;48.722;9.362;2024-02-23T02:11:00;4.30;99.90
46590;DHT22;32313;48.722;9.362;2024-02-23T02:13:28;4.20;99.90
46590;DHT22;32313;48.722;9.362;2024-02-23T02:15:54;4.20;99.90
46590;DHT22;32313;48.722;9.362;2024-02-23T02:18:20;4.10;99.90
46590;DHT22;32313;48.722;9.362;2024-02-23T02:20:56;4.00;99.90
46590;DHT22;32313;48.722;9.362;2024-02-23T02:23:25;4.00;99.90
46590;DHT22;32313;48.722;9.362;2024-02-23T02:25:57;3.90;99.90
46590;DHT22;32313;48.722;9.362;2024-02-23T02:28:24;3.90;99.90
46590;DHT22;32313;48.722;9.362;2024-02-23T02:30:53;3.80;99.90
46590;DHT22;32313;48.722;9.362;2024-02-23T02:33:19;3.80;99.90
46590;DHT22;32313;48.722;9.362;2024-02-23T02:35:45;3.80;99.90
46590;DHT22;32313;48.722;9.362;2024-02-23T02:38:11;3.90;99.90
46590;DHT22;32313;48.722;9.362;2024-02-23T02:40:37;3.90;99.90
46590;DHT22;32313;48.722;9.362;2024-02-23T02:43:03;3.90;99.90
46590;DHT22;32313;48.722;9.362;2024-02-23T02:45:30;3.90;99.90
46590;DHT22;32313;48.722;9.362;2024-02-23T02:47:55;3.90;99.90
46590;DHT22;32313;48.722;9.362;2024-02-23T02:50:22;3.90;99.90
46590;DHT22;32313;48.722;9.362;2024-02-23T02:52:48;3.90;99.90
46590;DHT22;32313;48.722;9.362;2024-02-23T02:55:14;3.90;99.90
46590;DHT22;32313;48.722;9.362;2024-02-23T02:57:39;3.90;99.90
46590;DHT22;32313;48.722;9.362;2024-02-23T03:00:09;3.90;99.90
46590;DHT22;32313;48.722;9.362;2024-02-23T03:02:35;3.90;99.90
46590;DHT22;32313;48.722;9.362;2024-02-23T03:05:01;4.00;99.90
46590;DHT22;32313;48.722;9.362;2024-02-23T03:07:26;4.00;99.90
46590;DHT22;32313;48.722;9.362;2024-02-23T03:09:52;4.00;99.90
46590;DHT22;32313;48.722;9.362;2024-02-23T03:12:18;4.00;99.90
46590;DHT22;32313;48.722;9.362;2024-02-23T03:14:44;4.00;99.90
46590;DHT22;32313;48.722;9.362;2024-02-23T03:17:10;4.00;99.90
46590;DHT22;32313;48.722;9.362;2024-02-23T03:19:36;4.10;99.90
46590;DHT22;32313;48.722;9.362;2024-02-23T03:22:02;4.00;99.90
46590;DHT22;32313;48.722;9.362;2024-02-23T03:24:28;4.00;99.90
46590;DHT22;32313;48.722;9.362;2024-02-23T03:26:53;4.00;99.90
46590;DHT22;32313;48.722;9.362;2024-02-23T03:29:19;4.00;99.90
46590;DHT22;32313;48.722;9.362;2024-02-23T03:31:45;4.00;99.90
46590;DHT22;32313;48.722;9.362;2024-02-23T03:34:11;4.00;99.90
46590;DHT22;32313;48.722;9.362;2024-02-23T03:36:38;4.00;99.90
46590;DHT22;32313;48.722;9.362;2024-02-23T03:39:04;3.90;99.90
46590;DHT22;32313;48.722;9.362;2024-02-23T03:41:30;3.80;99.90
46590;DHT22;32313;48.722;9.362;2024-02-23T03:43:55;3.80;99.90
46590;DHT22;32313;48.722;9.362;2024-02-23T03:46:21;3.80;99.90
46590;DHT22;32313;48.722;9.362;2024-02-23T03:48:47;3.80;99.90
46590;DHT22;32313;48.722;9.362;2024-02-23T03:51:13;3.90;99.90
46590;DHT22;32313;48.722;9.362;2024-02-23T03:53:38;3.90;99.90
46590;DHT22;32313;48.722;9.362;2024-02-23T03:56:04;3.90;99.90
46590;DHT22;32313;48.722;9.362;2024-02-23T03:58:30;3.90;99.90
46590;DHT22;32313;48.722;9.362;2024-02-23T04:00:56;3.80;99.90
46590;DHT22;32313;48.722;9.362;2024-02-23T04:03:21;3.70;99.90
46590;DHT22;32313;48.722;9.362;2024-02-23T04:05:47;3.70;99.90
46590;DHT22;32313;48.722;9.362;2024-02-23T04:08:13;3.70;99.90
46590;DHT22;32313;48.722;9.362;2024-02-23T04:10:38;3.60;99.90
46590;DHT22;32313;48.722;9.362;2024-02-23T04:13:04;3.60;99.90
46590;DHT22;32313;48.722;9.362;2024-02-23T04:15:31;3.50;99.90
46590;DHT22;32313;48.722;9.362;2024-02-23T04:17:57;3.50;99.90
46590;DHT22;32313;48.722;9.362;2024-02-23T04:20:22;3.50;99.90
46590;DHT22;32313;48.722;9.362;2024-02-23T04:22:48;3.50;99.90
46590;DHT22;32313;48.722;9.362;2024-02-23T04:25:14;3.40;99.90
46590;DHT22;32313;48.722;9.362;2024-02-23T04:27:39;3.40;99.90
46590;DHT22;32313;48.722;9.362;2024-02-23T04:30:05;3.30;99.90
46590;DHT22;32313;48.722;9.362;2024-02-23T04:32:31;3.30;99.90
46590;DHT22;32313;48.722;9.362;2024-02-23T04:34:57;3.30;99.90
46590;DHT22;32313;48.722;9.362;2024-02-23T04:37:23;3.30;99.90
46590;DHT22;32313;48.722;9.362;2024-02-23T04:39:48;3.20;99.90
46590;DHT22;32313;48.722;9.362;2024-02-23T04:42:14;3.10;99.90
46590;DHT22;32313;48.722;9.362;2024-02-23T04:44:43;3.00;99.90
46590;DHT22;32313;48.722;9.362;2024-02-23T04:47:09;3.00;99.90
46590;DHT22;32313;48.722;9.362;2024-02-23T04:49:34;2.90;99.90
46590;DHT22;32313;48.722;9.362;2024-02-23T04:52:00;2.90;99.90
46590;DHT22;32313;48.722;9.362;2024-02-23T04:54:26;2.80;99.90
46590;DHT22;32313;48.722;9.362;2024-02-23T04:56:52;2.70;99.90
46590;DHT22;32313;48.722;9.362;2024-02-23T04:59:18;2.70;99.90
46590;DHT22;32313;48.722;9.362;2024-02-23T05:01:43;2.70;99.90
46590;DHT22;32313;48.722;9.362;2024-02-23T05:04:09;2.70;99.90
46590;DHT22;32313;48.722;9.362;2024-02-23T05:06:35;2.70;99.90
46590;DHT22;32313;48.722;9.362;2024-02-23T05:09:01;2.60;99.90
46590;DHT22;32313;48.722;9.362;2024-02-23T05:11:27;2.60;99.90
46590;DHT22;32313;48.722;9.362;2024-02-23T05:13:52;2.50;99.90
46590;DHT22;32313;48.722;9.362;2024-02-23T05:16:20;2.50;99.90
46590;DHT22;32313;48.722;9.362;2024-02-23T05:18:45;2.50;99.90
46590;DHT22;32313;48.722;9.362;2024-02-23T05:21:14;2.50;99.90
46590;DHT22;32313;48.722;9.362;2024-02-23T05:23:40;2.40;99.90
46590;DHT22;32313;48.722;9.362;2024-02-23T05:26:06;2.40;99.90
46590;DHT22;32313;48.722;9.362;2024-02-23T05:28:32;2.30;99.90
46590;DHT22;32313;48.722;9.362;2024-02-23T05:30:57;2.20;99.90
46590;DHT22;32313;48.722;9.362;2024-02-23T05:33:23;2.20;99.90
46590;DHT22;32313;48.722;9.362;2024-02-23T05:35:49;2.20;99.90
46590;DHT22;32313;48.722;9.362;2024-02-23T05:38:15;2.20;99.90
46590;DHT22;32313;48.722;9.362;2024-02-23T05:40:42;2.20;99.90
46590;DHT22;32313;48.722;9.362;2024-02-23T05:43:08;2.10;99.90
46590;DHT22;32313;48.722;9.362;2024-02-23T05:45:34;2.10;99.90
46590;DHT22;32313;48.722;9.362;2024-02-23T05:48:00;2.10;99.90
46590;DHT22;32313;48.722;9.362;2024-02-23T05:50:25;2.10;99.90
46590;DHT22;32313;48.722;9.362;2024-02-23T05:52:51;2.00;99.90
46590;DHT22;32313;48.722;9.362;2024-02-23T05:55:18;2.10;99.90
46590;DHT22;32313;48.722;9.362;2024-02-23T05:57:44;2.10;99.90
46590;DHT22;32313;48.722;9.362;2024-02-23T06:00:10;2.10;99.90
46590;DHT22;32313;48.722;9.362;2024-02-23T06:02:39;2.10;99.90
46590;DHT22;32313;48.722;9.362;2024-02-23T06:05:06;2.10;99.90
46590;DHT22;32313;48.722;9.362;2024-02-23T06:07:33;2.00;99.90
46590;DHT22;32313;48.722;9.362;2024-02-23T06:10:00;1.90;99.90
46590;DHT22;32313;48.722;9.362;2024-02-23T06:12:26;1.90;99.90
46590;DHT22;32313;48.722;9.362;2024-02-23T06:14:52;1.90;99.90
46590;DHT22;32313;48.722;9.362;2024-02-23T06:17:19;1.80;99.90
46590;DHT22;32313;48.722;9.362;2024-02-23T06:19:45;1.80;99.90
46590;DHT22;32313;48.722;9.362;2024-02-23T06:22:10;1.90;99.90
46590;DHT22;32313;48.722;9.362;2024-02-23T06:24:37;1.90;99.90
46590;DHT22;32313;48.722;9.362;2024-02-23T06:27:03;1.90;99.90
46590;DHT22;32313;48.722;9.362;2024-02-23T06:29:29;1.90;99.90
46590;DHT22;32313;48.722;9.362;2024-02-23T06:31:55;1.90;99.90
46590;DHT22;32313;48.722;9.362;2024-02-23T06:34:21;1.90;99.90
46590;DHT22;32313;48.722;9.362;2024-02-23T06:36:47;1.80;99.90
46590;DHT22;32313;48.722;9.362;2024-02-23T06:39:13;1.80;99.90
46590;DHT22;32313;48.722;9.362;2024-02-23T06:41:39;1.90;99.90
46590;DHT22;32313;48.722;9.362;2024-02-23T06:44:05;1.90;99.90
46590;DHT22;32313;48.722;9.362;2024-02-23T06:46:31;1.90;99.90
46590;DHT22;32313;48.722;9.362;2024-02-23T06:48:56;1.90;99.90
46590;DHT22;32313;48.722;9.362;2024-02-23T06:51:22;1.90;99.90
46590;DHT22;32313;48.722;9.362;2024-02-23T06:53:48;1.90;99.90
46590;DHT22;32313;48.722;9.362;2024-02-23T06:56:14;1.90;99.90
46590;DHT22;32313;48.722;9.362;2024-02-23T06:58:40;2.00;99.90
46590;DHT22;32313;48.722;9.362;2024-02-23T07:01:06;2.10;99.90
46590;DHT22;32313;48.722;9.362;2024-02-23T07:03:36;2.10;99.90
46590;DHT22;32313;48.722;9.362;2024-02-23T07:06:03;2.20;99.90
46590;DHT22;32313;48.722;9.362;2024-02-23T07:08:29;2.20;99.90
46590;DHT22;32313;48.722;9.362;2024-02-23T07:10:55;2.20;99.90
46590;DHT22;32313;48.722;9.362;2024-02-23T07:13:21;2.20;99.90
46590;DHT22;32313;48.722;9.362;2024-02-23T07:15:47;2.20;99.90
46590;DHT22;32313;48.722;9.362;2024-02-23T07:18:12;2.20;99.90
46590;DHT22;32313;48.722;9.362;2024-02-23T07:20:38;2.30;99.90
46590;DHT22;32313;48.722;9.362;2024-02-23T07:23:04;2.40;99.90
46590;DHT22;32313;48.722;9.362;2024-02-23T07:25:30;2.40;99.90
46590;DHT22;32313;48.722;9.362;2024-02-23T07:27:56;2.50;99.90
46590;DHT22;32313;48.722;9.362;2024-02-23T07:30:22;2.50;99.90
46590;DHT22;32313;48.722;9.362;2024-02-23T07:32:48;2.60;99.90
46590;DHT22;32313;48.722;9.362;2024-02-23T07:35:13;2.60;99.90
46590;DHT22;32313;48.722;9.362;2024-02-23T07:37:40;2.70;99.90
46590;DHT22;32313;48.722;9.362;2024-02-23T07:40:06;2.70;99.90
46590;DHT22;32313;48.722;9.362;2024-02-23T07:42:32;2.80;99.90
46590;DHT22;32313;48.722;9.362;2024-02-23T07:45:02;2.90;99.90
46590;DHT22;32313;48.722;9.362;2024-02-23T07:47:32;3.10;99.90
46590;DHT22;32313;48.722;9.362;2024-02-23T07:49:58;3.20;99.90
46590;DHT22;32313;48.722;9.362;2024-02-23T07:52:24;3.30;99.90
46590;DHT22;32313;48.722;9.362;2024-02-23T07:54:53;3.40;99.90
46590;DHT22;32313;48.722;9.362;2024-02-23T07:57:19;3.40;99.90
46590;DHT22;32313;48.722;9.362;2024-02-23T07:59:46;3.50;99.90
46590;DHT22;32313;48.722;9.362;2024-02-23T08:02:12;3.50;99.90
46590;DHT22;32313;48.722;9.362;2024-02-23T08:04:37;3.60;99.90
46590;DHT22;32313;48.722;9.362;2024-02-23T08:07:04;3.70;99.90
46590;DHT22;32313;48.722;9.362;2024-02-23T08:09:29;3.80;99.90
46590;DHT22;32313;48.722;9.362;2024-02-23T08:11:55;3.90;99.90
46590;DHT22;32313;48.722;9.362;2024-02-23T08:14:21;3.90;99.90
46590;DHT22;32313;48.722;9.362;2024-02-23T08:16:47;4.00;99.90
46590;DHT22;32313;48.722;9.362;2024-02-23T08:19:13;4.10;99.90
46590;DHT22;32313;48.722;9.362;2024-02-23T08:21:38;4.10;99.90
46590;DHT22;32313;48.722;9.362;2024-02-23T08:24:05;4.20;99.90
46590;DHT22;32313;48.722;9.362;2024-02-23T08:26:30;4.30;99.90
46590;DHT22;32313;48.722;9.362;2024-02-23T08:28:56;4.40;99.90
46590;DHT22;32313;48.722;9.362;2024-02-23T08:31:22;4.50;99.90
46590;DHT22;32313;48.722;9.362;2024-02-23T08:33:47;4.60;99.90
46590;DHT22;32313;48.722;9.362;2024-02-23T08:36:13;4.70;99.90
46590;DHT22;32313;48.722;9.362;2024-02-23T08:38:38;4.80;99.90
46590;DHT22;32313;48.722;9.362;2024-02-23T08:41:04;4.80;99.90
46590;DHT22;32313;48.722;9.362;2024-02-23T08:43:30;4.90;99.90
46590;DHT22;32313;48.722;9.362;2024-02-23T08:45:56;5.00;99.90
46590;DHT22;32313;48.722;9.362;2024-02-23T08:48:21;5.10;99.90
46590;DHT22;32313;48.722;9.362;2024-02-23T08:50:47;5.10;99.90
46590;DHT22;32313;48.722;9.362;2024-02-23T08:53:13;5.20;99.90
46590;DHT22;32313;48.722;9.362;2024-02-23T08:55:38;5.20;99.90
46590;DHT22;32313;48.722;9.362;2024-02-23T08:58:04;5.30;99.90
46590;DHT22;32313;48.722;9.362;2024-02-23T09:00:32;5.30;99.90
46590;DHT22;32313;48.722;9.362;2024-02-23T09:02:57;5.40;99.90
46590;DHT22;32313;48.722;9.362;2024-02-23T09:05:23;5.50;99.90
46590;DHT22;32313;48.722;9.362;2024-02-23T09:07:49;5.50;99.90
46590;DHT22;32313;48.722;9.362;2024-02-23T09:10:15;5.60;99.90
46590;DHT22;32313;48.722;9.362;2024-02-23T09:12:41;5.60;99.90
46590;DHT22;32313;48.722;9.362;2024-02-23T09:15:07;5.60;99.90
46590;DHT22;32313;48.722;9.362;2024-02-23T09:17:33;5.70;99.90
46590;DHT22;32313;48.722;9.362;2024-02-23T09:19:58;5.80;99.90
46590;DHT22;32313;48.722;9.362;2024-02-23T09:22:24;5.90;99.90
46590;DHT22;32313;48.722;9.362;2024-02-23T09:24:49;5.90;99.90
46590;DHT22;32313;48.722;9.362;2024-02-23T09:27:15;6.00;99.90
46590;DHT22;32313;48.722;9.362;2024-02-23T09:29:41;6.10;99.90
46590;DHT22;32313;48.722;9.362;2024-02-23T09:32:07;6.10;99.90
46590;DHT22;32313;48.722;9.362;2024-02-23T09:34:33;6.20;99.90
46590;DHT22;32313;48.722;9.362;2024-02-23T09:36:59;6.30;99.90
46590;DHT22;32313;48.722;9.362;2024-02-23T09:39:25;6.40;99.90
46590;DHT22;32313;48.722;9.362;2024-02-23T09:41:55;6.60;99.90
46590;DHT22;32313;48.722;9.362;2024-02-23T09:44:22;6.70;99.90
46590;DHT22;32313;48.722;9.362;2024-02-23T09:46:48;6.70;99.90
46590;DHT22;32313;48.722;9.362;2024-02-23T09:49:17;6.80;99.90
46590;DHT22;32313;48.722;9.362;2024-02-23T09:51:43;6.80;99.90
46590;DHT22;32313;48.722;9.362;2024-02-23T09:54:09;6.90;99.90
46590;DHT22;32313;48.722;9.362;2024-02-23T09:56:35;7.10;99.90
46590;DHT22;32313;48.722;9.362;2024-02-23T09:59:03;7.10;99.90
46590;DHT22;32313;48.722;9.362;2024-02-23T10:01:30;7.20;99.90
46590;DHT22;32313;48.722;9.362;2024-02-23T10:04:00;7.40;99.90
46590;DHT22;32313;48.722;9.362;2024-02-23T10:06:27;7.50;99.90
46590;DHT22;32313;48.722;9.362;2024-02-23T10:08:53;7.50;99.90
46590;DHT22;32313;48.722;9.362;2024-02-23T10:11:22;7.50;99.90
46590;DHT22;32313;48.722;9.362;2024-02-23T10:13:49;7.60;99.90
46590;DHT22;32313;48.722;9.362;2024-02-23T10:16:21;7.60;99.90
46590;DHT22;32313;48.722;9.362;2024-02-23T10:18:48;7.60;99.90
46590;DHT22;32313;48.722;9.362;2024-02-23T10:21:15;7.60;99.90
46590;DHT22;32313;48.722;9.362;2024-02-23T10:23:41;7.60;99.90
46590;DHT22;32313;48.722;9.362;2024-02-23T10:26:07;7.50;99.90
46590;DHT22;32313;48.722;9.362;2024-02-23T10:28:37;7.50;99.90
46590;DHT22;32313;48.722;9.362;2024-02-23T10:31:06;7.50;99.90
46590;DHT22;32313;48.722;9.362;2024-02-23T10:33:32;7.50;99.90
46590;DHT22;32313;48.722;9.362;2024-02-23T10:35:58;7.60;99.90
46590;DHT22;32313;48.722;9.362;2024-02-23T10:38:29;7.80;99.90
46590;DHT22;32313;48.722;9.362;2024-02-23T10:40:57;7.90;99.90
46590;DHT22;32313;48.722;9.362;2024-02-23T10:43:30;8.10;99.90
46590;DHT22;32313;48.722;9.362;2024-02-23T10:45:58;8.10;99.90
46590;DHT22;32313;48.722;9.362;2024-02-23T10:48:28;8.10;99.90
46590;DHT22;32313;48.722;9.362;2024-02-23T10:50:56;8.00;99.90
46590;DHT22;32313;48.722;9.362;2024-02-23T10:53:23;7.90;99.90
46590;DHT22;32313;48.722;9.362;2024-02-23T10:55:56;8.00;99.90
46590;DHT22;32313;48.722;9.362;2024-02-23T10:58:23;8.10;99.90
46590;DHT22;32313;48.722;9.362;2024-02-23T11:00:49;8.00;99.90
46590;DHT22;32313;48.722;9.362;2024-02-23T11:03:16;8.00;99.90
46590;DHT22;32313;48.722;9.362;2024-02-23T11:05:42;8.10;99.90
46590;DHT22;32313;48.722;9.362;2024-02-23T11:08:08;8.20;99.90
46590;DHT22;32313;48.722;9.362;2024-02-23T11:10:49;8.20;99.90
46590;DHT22;32313;48.722;9.362;2024-02-23T11:13:15;8.20;99.90
46590;DHT22;32313;48.722;9.362;2024-02-23T11:15:42;8.10;99.90
46590;DHT22;32313;48.722;9.362;2024-02-23T11:18:28;8.00;99.90
46590;DHT22;32313;48.722;9.362;2024-02-23T11:20:55;8.00;99.90
46590;DHT22;32313;48.722;9.362;2024-02-23T11:23:22;8.00;99.90
46590;DHT22;32313;48.722;9.362;2024-02-23T11:26:04;7.80;99.90
46590;DHT22;32313;48.722;9.362;2024-02-23T11:28:31;7.80;99.90
46590;DHT22;32313;48.722;9.362;2024-02-23T11:30:57;7.80;99.90
46590;DHT22;32313;48.722;9.362;2024-02-23T11:33:37;7.90;99.90
46590;DHT22;32313;48.722;9.362;2024-02-23T11:36:09;7.90;99.90
46590;DHT22;32313;48.722;9.362;2024-02-23T11:38:36;8.00;99.90
46590;DHT22;32313;48.722;9.362;2024-02-23T11:41:04;8.00;99.90
46590;DHT22;32313;48.722;9.362;2024-02-23T11:43:34;7.90;99.90
46590;DHT22;32313;48.722;9.362;2024-02-23T11:46:00;7.80;99.90
46590;DHT22;32313;48.722;9.362;2024-02-23T11:48:26;7.80;99.90
46590;DHT22;32313;48.722;9.362;2024-02-23T11:50:51;7.80;99.90
46590;DHT22;32313;48.722;9.362;2024-02-23T11:53:17;7.90;99.90
46590;DHT22;32313;48.722;9.362;2024-02-23T11:55:44;8.10;99.90
46590;DHT22;32313;48.722;9.362;2024-02-23T11:58:10;8.30;99.90
46590;DHT22;32313;48.722;9.362;2024-02-23T12:00:36;8.40;99.90
46590;DHT22;32313;48.722;9.362;2024-02-23T12:03:02;8.40;99.90
46590;DHT22;32313;48.722;9.362;2024-02-23T12:05:28;8.40;99.90
46590;DHT22;32313;48.722;9.362;2024-02-23T12:07:54;8.40;99.90
46590;DHT22;32313;48.722;9.362;2024-02-23T12:10:20;8.50;99.90
46590;DHT22;32313;48.722;9.362;2024-02-23T12:12:46;8.60;99.90
46590;DHT22;32313;48.722;9.362;2024-02-23T12:15:11;8.70;99.90
46590;DHT22;32313;48.722;9.362;2024-02-23T12:17:37;8.70;99.90
46590;DHT22;32313;48.722;9.362;2024-02-23T12:20:03;8.70;99.90
46590;DHT22;32313;48.722;9.362;2024-02-23T12:22:29;8.70;99.90
46590;DHT22;32313;48.722;9.362;2024-02-23T12:24:59;8.70;99.90
46590;DHT22;32313;48.722;9.362;2024-02-23T12:27:26;8.70;99.90
46590;DHT22;32313;48.722;9.362;2024-02-23T12:29:52;8.80;99.90
46590;DHT22;32313;48.722;9.362;2024-02-23T12:32:20;8.80;99.90
46590;DHT22;32313;48.722;9.362;2024-02-23T12:34:47;8.80;99.90
46590;DHT22;32313;48.722;9.362;2024-02-23T12:37:16;8.80;99.90
46590;DHT22;32313;48.722;9.362;2024-02-23T12:39:43;8.60;99.90
46590;DHT22;32313;48.722;9.362;2024-02-23T12:42:08;8.60;99.90
46590;DHT22;32313;48.722;9.362;2024-02-23T12:44:34;8.60;99.90
46590;DHT22;32313;48.722;9.362;2024-02-23T12:47:00;8.70;99.90
46590;DHT22;32313;48.722;9.362;2024-02-23T12:49:26;8.90;99.90
46590;DHT22;32313;48.722;9.362;2024-02-23T12:51:52;9.00;99.90
46590;DHT22;32313;48.722;9.362;2024-02-23T12:54:17;9.00;99.90
46590;DHT22;32313;48.722;9.362;2024-02-23T12:56:43;9.30;99.90
46590;DHT22;32313;48.722;9.362;2024-02-23T12:59:09;9.60;99.90
46590;DHT22;32313;48.722;9.362;2024-02-23T13:01:35;9.80;99.90
46590;DHT22;32313;48.722;9.362;2024-02-23T13:04:03;9.80;99.90
46590;DHT22;32313;48.722;9.362;2024-02-23T13:06:37;9.90;99.90
46590;DHT22;32313;48.722;9.362;2024-02-23T13:09:03;9.80;99.90
46590;DHT22;32313;48.722;9.362;2024-02-23T13:11:30;9.90;99.90
46590;DHT22;32313;48.722;9.362;2024-02-23T13:13:56;9.90;99.90
46590;DHT22;32313;48.722;9.362;2024-02-23T13:16:21;9.80;99.90
46590;DHT22;32313;48.722;9.362;2024-02-23T13:18:47;9.70;99.90
46590;DHT22;32313;48.722;9.362;2024-02-23T13:21:13;9.50;99.90
46590;DHT22;32313;48.722;9.362;2024-02-23T13:23:39;9.40;99.90
46590;DHT22;32313;48.722;9.362;2024-02-23T13:26:07;9.30;99.90
46590;DHT22;32313;48.722;9.362;2024-02-23T13:28:33;9.20;99.90
46590;DHT22;32313;48.722;9.362;2024-02-23T13:30:59;9.20;99.90
46590;DHT22;32313;48.722;9.362;2024-02-23T13:33:24;9.30;99.90
46590;DHT22;32313;48.722;9.362;2024-02-23T13:35:51;9.40;99.90
46590;DHT22;32313;48.722;9.362;2024-02-23T13:38:16;9.40;99.90
46590;DHT22;32313;48.722;9.362;2024-02-23T13:40:42;9.30;99.90
46590;DHT22;32313;48.722;9.362;2024-02-23T13:43:08;9.30;99.90
46590;DHT22;32313;48.722;9.362;2024-02-23T13:45:48;9.30;99.90
46590;DHT22;32313;48.722;9.362;2024-02-23T13:48:14;9.20;99.90
46590;DHT22;32313;48.722;9.362;2024-02-23T13:50:40;9.40;99.90
46590;DHT22;32313;48.722;9.362;2024-02-23T13:53:06;9.40;99.90
46590;DHT22;32313;48.722;9.362;2024-02-23T13:55:32;9.30;99.90
46590;DHT22;32313;48.722;9.362;2024-02-23T13:57:57;9.30;99.90
46590;DHT22;32313;48.722;9.362;2024-02-23T14:00:23;9.30;99.90
46590;DHT22;32313;48.722;9.362;2024-02-23T14:02:49;9.20;99.90
46590;DHT22;32313;48.722;9.362;2024-02-23T14:05:15;9.30;99.90
46590;DHT22;32313;48.722;9.362;2024-02-23T14:07:40;9.20;99.90
46590;DHT22;32313;48.722;9.362;2024-02-23T14:10:07;9.20;99.90
46590;DHT22;32313;48.722;9.362;2024-02-23T14:12:33;9.20;99.90
46590;DHT22;32313;48.722;9.362;2024-02-23T14:14:58;9.10;99.90
46590;DHT22;32313;48.722;9.362;2024-02-23T14:17:24;9.00;99.90
46590;DHT22;32313;48.722;9.362;2024-02-23T14:19:50;9.00;99.90
46590;DHT22;32313;48.722;9.362;2024-02-23T14:22:16;8.90;99.90
46590;DHT22;32313;48.722;9.362;2024-02-23T14:24:42;8.80;99.90
46590;DHT22;32313;48.722;9.362;2024-02-23T14:27:08;8.80;99.90
46590;DHT22;32313;48.722;9.362;2024-02-23T14:29:34;8.90;99.90
46590;DHT22;32313;48.722;9.362;2024-02-23T14:32:00;8.90;99.90
46590;DHT22;32313;48.722;9.362;2024-02-23T14:34:26;9.00;99.90
46590;DHT22;32313;48.722;9.362;2024-02-23T14:36:52;9.00;99.90
46590;DHT22;32313;48.722;9.362;2024-02-23T14:39:18;9.10;99.90
46590;DHT22;32313;48.722;9.362;2024-02-23T14:41:44;9.30;99.90
46590;DHT22;32313;48.722;9.362;2024-02-23T14:44:09;9.40;99.90
46590;DHT22;32313;48.722;9.362;2024-02-23T14:46:35;9.40;99.90
46590;DHT22;32313;48.722;9.362;2024-02-23T14:49:01;9.60;99.90
46590;DHT22;32313;48.722;9.362;2024-02-23T14:51:26;9.90;99.90
46590;DHT22;32313;48.722;9.362;2024-02-23T14:53:52;10.00;99.90
46590;DHT22;32313;48.722;9.362;2024-02-23T14:56:18;10.00;99.90
46590;DHT22;32313;48.722;9.362;2024-02-23T14:58:44;9.90;99.90
46590;DHT22;32313;48.722;9.362;2024-02-23T15:01:10;9.80;99.90
46590;DHT22;32313;48.722;9.362;2024-02-23T15:03:35;9.80;99.90
46590;DHT22;32313;48.722;9.362;2024-02-23T15:06:01;9.80;99.90
46590;DHT22;32313;48.722;9.362;2024-02-23T15:08:27;9.50;99.90
46590;DHT22;32313;48.722;9.362;2024-02-23T15:10:53;9.40;99.90
46590;DHT22;32313;48.722;9.362;2024-02-23T15:13:19;9.40;99.90
46590;DHT22;32313;48.722;9.362;2024-02-23T15:15:45;9.30;99.90
46590;DHT22;32313;48.722;9.362;2024-02-23T15:18:11;9.10;99.90
46590;DHT22;32313;48.722;9.362;2024-02-23T15:20:37;8.90;99.90
46590;DHT22;32313;48.722;9.362;2024-02-23T15:23:03;8.70;99.90
46590;DHT22;32313;48.722;9.362;2024-02-23T15:25:28;8.60;99.90
46590;DHT22;32313;48.722;9.362;2024-02-23T15:27:54;8.60;99.90
46590;DHT22;32313;48.722;9.362;2024-02-23T15:30:26;8.70;99.90
46590;DHT22;32313;48.722;9.362;2024-02-23T15:32:51;8.70;99.90
46590;DHT22;32313;48.722;9.362;2024-02-23T15:35:17;8.70;99.90
46590;DHT22;32313;48.722;9.362;2024-02-23T15:37:44;8.80;99.90
46590;DHT22;32313;48.722;9.362;2024-02-23T15:40:11;9.00;99.90